createdAt,value
2023-01-09T00:00:21.723Z,99346.06
2023-01-09T00:02:48.731Z,99344.66
2023-01-09T00:05:16.740Z,99339.19
2023-01-09T00:07:43.961Z,99339.78
2023-01-09T00:10:11.454Z,99327.38
2023-01-09T00:12:38.435Z,99320.56
2023-01-09T00:15:05.544Z,99317.81
2023-01-09T00:17:32.336Z,99312.63
2023-01-09T00:19:59.477Z,99311.81
2023-01-09T00:22:26.585Z,99294.69
2023-01-09T00:24:53.479Z,99301.78
2023-01-09T00:27:20.356Z,99291.88
2023-01-09T00:29:47.741Z,99291.38
2023-01-09T00:32:14.618Z,99285.59
2023-01-09T00:34:42.983Z,99280.25
2023-01-09T00:37:11.995Z,99271.94
2023-01-09T00:39:39.385Z,99277.59
2023-01-09T00:42:07.425Z,99275.81
2023-01-09T00:44:40.066Z,99267.16
2023-01-09T00:47:11.322Z,99265.78
2023-01-09T00:49:38.194Z,99265.47
2023-01-09T00:52:06.911Z,99262.81
2023-01-09T00:54:33.865Z,99251.59
2023-01-09T00:57:00.850Z,99254.56
2023-01-09T00:59:28.166Z,99252.22
2023-01-09T01:01:55.161Z,99238.84
2023-01-09T01:04:40.699Z,99232.53
2023-01-09T01:07:26.011Z,99236.34
2023-01-09T01:09:53.122Z,99228.03
2023-01-09T01:12:20.065Z,99238.84
2023-01-09T01:14:46.882Z,99236.19
2023-01-09T01:17:13.744Z,99236.00
2023-01-09T01:19:40.978Z,99236.41
2023-01-09T01:22:07.824Z,99242.34
2023-01-09T01:24:34.752Z,99236.41
2023-01-09T01:27:01.701Z,99241.25
2023-01-09T01:29:29.121Z,99235.25
2023-01-09T01:31:56.165Z,99235.25
2023-01-09T01:34:23.053Z,99243.78
2023-01-09T01:36:50.449Z,99242.19
2023-01-09T01:39:17.417Z,99237.84
2023-01-09T01:41:44.253Z,99231.72
2023-01-09T01:44:29.972Z,99235.16
2023-01-09T01:46:56.876Z,99225.78
2023-01-09T01:49:23.733Z,99229.75
2023-01-09T01:51:52.175Z,99218.25
2023-01-09T01:54:21.584Z,99212.41
2023-01-09T01:56:56.988Z,99204.78
2023-01-09T01:59:28.640Z,99200.84
2023-01-09T02:01:58.292Z,99211.53
2023-01-09T02:04:25.424Z,99202.59
2023-01-09T02:06:54.109Z,99205.44
2023-01-09T02:09:23.217Z,99196.03
2023-01-09T02:11:52.411Z,99196.03
2023-01-09T02:14:20.285Z,99200.00
2023-01-09T02:17:10.513Z,99200.34
2023-01-09T02:19:37.400Z,99185.50
2023-01-09T02:22:04.231Z,99175.13
2023-01-09T02:24:50.171Z,99178.22
2023-01-09T02:27:35.115Z,99177.75
2023-01-09T02:30:20.719Z,99174.69
2023-01-09T02:32:59.601Z,99170.94
2023-01-09T02:35:32.408Z,99174.25
2023-01-09T02:38:14.805Z,99176.19
2023-01-09T02:40:56.585Z,99176.47
2023-01-09T02:43:23.623Z,99174.16
2023-01-09T02:45:50.566Z,99172.72
2023-01-09T02:48:17.784Z,99166.25
2023-01-09T02:51:00.142Z,99164.84
2023-01-09T02:53:32.809Z,99163.47
2023-01-09T02:56:18.531Z,99155.09
2023-01-09T02:59:00.699Z,99164.41
2023-01-09T03:01:27.870Z,99151.53
2023-01-09T03:04:10.682Z,99147.75
2023-01-09T03:06:55.821Z,99145.88
2023-01-09T03:09:24.459Z,99146.16
2023-01-09T03:11:53.758Z,99148.69
2023-01-09T03:14:22.896Z,99150.78
2023-01-09T03:16:52.228Z,99143.06
2023-01-09T03:19:21.688Z,99140.09
2023-01-09T03:21:49.213Z,99151.09
2023-01-09T03:24:16.313Z,99143.06
2023-01-09T03:26:43.438Z,99148.41
2023-01-09T03:29:10.540Z,99145.63
2023-01-09T03:31:37.444Z,99146.41
2023-01-09T03:34:04.802Z,99146.53
2023-01-09T03:36:31.694Z,99147.03
2023-01-09T03:38:58.448Z,99145.13
2023-01-09T03:41:25.311Z,99150.63
2023-01-09T03:43:52.203Z,99149.06
2023-01-09T03:46:19.037Z,99157.91
2023-01-09T03:48:46.147Z,99149.88
2023-01-09T03:51:13.056Z,99148.59
2023-01-09T03:53:39.916Z,99152.69
2023-01-09T03:56:06.935Z,99149.41
2023-01-09T03:58:33.781Z,99150.19
2023-01-09T04:01:01.915Z,99149.75
2023-01-09T04:03:29.166Z,99148.50
2023-01-09T04:05:56.364Z,99148.81
2023-01-09T04:08:23.291Z,99141.25
2023-01-09T04:10:50.539Z,99140.31
2023-01-09T04:13:17.836Z,99130.69
2023-01-09T04:15:44.748Z,99121.41
2023-01-09T04:18:11.760Z,99130.25
2023-01-09T04:20:38.814Z,99118.44
2023-01-09T04:23:05.945Z,99107.41
2023-01-09T04:25:32.835Z,99108.84
2023-01-09T04:27:59.889Z,99092.13
2023-01-09T04:30:26.745Z,99088.84
2023-01-09T04:32:53.584Z,99086.16
2023-01-09T04:35:20.428Z,99083.31
2023-01-09T04:37:47.379Z,99069.47
2023-01-09T04:40:14.440Z,99070.41
2023-01-09T04:42:42.039Z,99073.25
2023-01-09T04:45:09.713Z,99064.59
2023-01-09T04:47:36.601Z,99052.59
2023-01-09T04:50:04.137Z,99053.88
2023-01-09T04:52:31.011Z,99047.84
2023-01-09T04:54:57.860Z,99043.75
2023-01-09T04:57:25.109Z,99053.69
2023-01-09T04:59:52.320Z,99047.53
2023-01-09T05:02:20.537Z,99054.47
2023-01-09T05:04:47.359Z,99056.81
2023-01-09T05:07:14.219Z,99062.34
2023-01-09T05:09:41.190Z,99053.81
2023-01-09T05:12:08.201Z,99060.78
2023-01-09T05:14:35.084Z,99050.97
2023-01-09T05:17:02.167Z,99056.19
2023-01-09T05:19:29.219Z,99049.44
2023-01-09T05:21:56.112Z,99052.13
2023-01-09T05:24:22.882Z,99054.66
2023-01-09T05:26:49.759Z,99053.56
2023-01-09T05:29:16.947Z,99057.63
2023-01-09T05:31:44.660Z,99052.28
2023-01-09T05:34:11.590Z,99055.91
2023-01-09T05:36:38.461Z,99050.88
2023-01-09T05:39:05.622Z,99049.94
2023-01-09T05:41:32.492Z,99046.13
2023-01-09T05:43:59.496Z,99039.22
2023-01-09T05:46:26.552Z,99042.53
2023-01-09T05:48:53.395Z,99040.16
2023-01-09T05:51:20.238Z,99033.69
2023-01-09T05:53:47.209Z,99026.91
2023-01-09T05:56:14.091Z,99029.91
2023-01-09T05:58:41.084Z,99013.03
2023-01-09T06:01:08.079Z,99010.06
2023-01-09T06:03:34.949Z,99008.63
2023-01-09T06:06:01.801Z,99007.06
2023-01-09T06:08:28.680Z,99003.91
2023-01-09T06:10:55.577Z,99002.94
2023-01-09T06:13:22.541Z,98998.53
2023-01-09T06:15:49.506Z,98995.69
2023-01-09T06:18:16.655Z,98995.69
2023-01-09T06:20:44.945Z,98993.16
2023-01-09T06:23:13.645Z,98996.16
2023-01-09T06:25:40.847Z,98994.28
2023-01-09T06:28:07.646Z,98996.16
2023-01-09T06:30:34.721Z,98995.06
2023-01-09T06:33:01.603Z,99003.25
2023-01-09T06:35:28.724Z,99002.94
2023-01-09T06:37:55.592Z,99010.97
2023-01-09T06:40:22.540Z,99005.00
2023-01-09T06:42:50.078Z,99000.13
2023-01-09T06:45:16.963Z,99003.59
2023-01-09T06:47:44.127Z,99002.66
2023-01-09T06:50:11.416Z,99004.53
2023-01-09T06:52:38.527Z,99004.53
2023-01-09T06:55:05.688Z,99002.31
2023-01-09T06:57:32.610Z,99000.75
2023-01-09T06:59:59.526Z,99002.47
2023-01-09T07:02:26.293Z,98997.09
2023-01-09T07:04:53.147Z,98999.34
2023-01-09T07:07:22.208Z,99002.94
2023-01-09T07:09:49.239Z,98998.38
2023-01-09T07:12:16.183Z,99001.97
2023-01-09T07:14:43.140Z,99000.88
2023-01-09T07:17:13.686Z,98998.19
2023-01-09T07:19:40.932Z,99011.78
2023-01-09T07:22:07.989Z,99011.78
2023-01-09T07:24:35.131Z,99012.09
2023-01-09T07:27:02.432Z,99015.22
2023-01-09T07:29:29.365Z,99024.38
2023-01-09T07:31:56.329Z,99019.94
2023-01-09T07:34:23.171Z,99028.47
2023-01-09T07:36:51.172Z,99037.63
2023-01-09T07:39:18.072Z,99040.78
2023-01-09T07:41:45.197Z,99042.50
2023-01-09T07:44:12.583Z,99042.19
2023-01-09T07:46:39.494Z,99051.00
2023-01-09T07:49:06.450Z,99049.91
2023-01-09T07:51:33.713Z,99045.78
2023-01-09T07:54:00.551Z,99054.63
2023-01-09T07:56:27.498Z,99051.63
2023-01-09T07:58:54.274Z,99050.22
2023-01-09T08:01:21.298Z,99061.72
2023-01-09T08:03:48.326Z,99059.06
2023-01-09T08:06:33.953Z,99071.97
2023-01-09T08:09:19.420Z,99071.97
2023-01-09T08:12:05.101Z,99074.66
2023-01-09T08:14:32.268Z,99074.19
2023-01-09T08:16:59.401Z,99076.41
2023-01-09T08:19:26.257Z,99081.59
2023-01-09T08:21:53.047Z,99081.91
2023-01-09T08:24:19.880Z,99077.03
2023-01-09T08:26:46.785Z,99092.31
2023-01-09T08:29:13.684Z,99091.84
2023-01-09T08:31:40.838Z,99102.09
2023-01-09T08:34:07.663Z,99097.06
2023-01-09T08:36:34.551Z,99107.28
2023-01-09T08:39:01.427Z,99114.09
2023-01-09T08:41:47.047Z,99109.81
2023-01-09T08:44:32.820Z,99112.34
2023-01-09T08:47:08.790Z,99121.97
2023-01-09T08:49:37.156Z,99134.44
2023-01-09T08:52:04.995Z,99133.78
2023-01-09T08:54:32.471Z,99144.03
2023-01-09T08:56:59.655Z,99134.88
2023-01-09T08:59:26.455Z,99142.13
2023-01-09T09:01:53.932Z,99148.59
2023-01-09T09:04:21.146Z,99158.06
2023-01-09T09:06:48.043Z,99162.34
2023-01-09T09:09:15.602Z,99156.63
2023-01-09T09:11:42.844Z,99156.50
2023-01-09T09:14:28.401Z,99153.19
2023-01-09T09:16:55.983Z,99159.97
2023-01-09T09:19:23.483Z,99162.97
2023-01-09T09:21:50.691Z,99163.94
2023-01-09T09:24:17.694Z,99168.00
2023-01-09T09:26:44.845Z,99173.22
2023-01-09T09:29:12.057Z,99177.16
2023-01-09T09:31:39.121Z,99182.97
2023-01-09T09:34:07.191Z,99184.72
2023-01-09T09:36:34.790Z,99198.16
2023-01-09T09:39:02.710Z,99210.47
2023-01-09T09:42:07.309Z,99208.22
2023-01-09T09:44:54.533Z,99230.13
2023-01-09T09:47:41.690Z,99241.97
2023-01-09T09:50:22.137Z,99254.47
2023-01-09T09:52:52.184Z,99263.75
2023-01-09T09:55:24.292Z,99278.91
2023-01-09T09:57:52.131Z,99285.22
2023-01-09T10:00:20.326Z,99288.41
2023-01-09T10:02:51.957Z,99302.91
2023-01-09T10:05:30.290Z,99311.44
2023-01-09T10:08:11.626Z,99324.19
2023-01-09T10:10:52.352Z,99347.25
2023-01-09T10:13:39.593Z,99343.75
2023-01-09T10:16:12.705Z,99362.06
2023-01-09T10:18:48.647Z,99374.66
2023-01-09T10:21:15.913Z,99378.94
2023-01-09T10:23:48.868Z,99390.66
2023-01-09T10:26:25.093Z,99381.50
2023-01-09T10:29:01.166Z,99392.06
2023-01-09T10:31:40.464Z,99402.47
2023-01-09T10:34:26.921Z,99422.84
2023-01-09T10:37:12.694Z,99421.44
2023-01-09T10:39:42.441Z,99437.09
2023-01-09T10:42:21.869Z,99445.63
2023-01-09T10:44:58.403Z,99450.56
2023-01-09T10:47:47.008Z,99466.78
2023-01-09T10:50:25.248Z,99481.31
2023-01-09T10:52:53.499Z,99484.97
2023-01-09T10:55:41.489Z,99493.94
2023-01-09T10:58:12.549Z,99495.53
2023-01-09T11:00:40.570Z,99502.97
2023-01-09T11:03:11.736Z,99508.03
2023-01-09T11:05:38.581Z,99512.34
2023-01-09T11:08:08.389Z,99520.09
2023-01-09T11:10:44.245Z,99525.28
2023-01-09T11:13:13.874Z,99536.34
2023-01-09T11:15:41.161Z,99534.72
2023-01-09T11:18:24.782Z,99538.81
2023-01-09T11:20:51.759Z,99540.53
2023-01-09T11:23:24.515Z,99538.66
2023-01-09T11:25:55.215Z,99542.03
2023-01-09T11:28:22.126Z,99546.16
2023-01-09T11:30:54.179Z,99556.13
2023-01-09T11:33:24.437Z,99562.75
2023-01-09T11:35:56.794Z,99566.41
2023-01-09T11:38:23.759Z,99559.44
2023-01-09T11:40:50.605Z,99570.50
2023-01-09T11:43:17.423Z,99564.47
2023-01-09T11:45:56.316Z,99571.09
2023-01-09T11:48:45.286Z,99575.09
2023-01-09T11:51:23.495Z,99586.53
2023-01-09T11:54:07.778Z,99586.91
2023-01-09T11:56:36.468Z,99603.88
2023-01-09T11:59:09.333Z,99607.97
2023-01-09T12:01:36.437Z,99604.66
2023-01-09T12:04:06.149Z,99609.72
2023-01-09T12:06:45.306Z,99608.66
2023-01-09T12:09:16.500Z,99613.22
2023-01-09T12:11:49.375Z,99618.59
2023-01-09T12:14:16.212Z,99613.53
2023-01-09T12:16:58.321Z,99616.84
2023-01-09T12:19:44.020Z,99613.84
2023-01-09T12:22:24.152Z,99608.16
2023-01-09T12:25:01.476Z,99610.03
2023-01-09T12:27:37.939Z,99599.28
2023-01-09T12:30:05.039Z,99604.66
2023-01-09T12:32:44.103Z,99608.31
2023-01-09T12:35:24.513Z,99601.50
2023-01-09T12:38:10.237Z,99611.91
2023-01-09T12:40:55.898Z,99624.13
2023-01-09T12:43:43.073Z,99620.78
2023-01-09T12:46:16.349Z,99623.19
2023-01-09T12:48:49.153Z,99622.53
2023-01-09T12:51:32.905Z,99629.66
2023-01-09T12:53:59.911Z,99629.34
2023-01-09T12:56:32.168Z,99633.94
2023-01-09T12:59:01.809Z,99628.38
2023-01-09T13:01:30.766Z,99635.03
2023-01-09T13:04:04.092Z,99638.03
2023-01-09T13:06:33.204Z,99629.78
2023-01-09T13:09:00.124Z,99632.28
2023-01-09T13:11:44.878Z,99637.66
2023-01-09T13:14:16.233Z,99637.53
2023-01-09T13:16:46.818Z,99633.28
2023-01-09T13:19:43.019Z,99634.97
2023-01-09T13:22:14.374Z,99633.75
2023-01-09T13:25:01.627Z,99629.59
2023-01-09T13:27:31.901Z,99625.69
2023-01-09T13:30:05.725Z,99628.69
2023-01-09T13:32:32.541Z,99622.53
2023-01-09T13:35:01.463Z,99621.72
2023-01-09T13:37:31.016Z,99617.94
2023-01-09T13:39:59.345Z,99629.19
2023-01-09T13:42:45.167Z,99625.22
2023-01-09T13:45:20.416Z,99620.94
2023-01-09T13:47:49.904Z,99616.69
2023-01-09T13:50:22.747Z,99623.63
2023-01-09T13:52:49.979Z,99616.97
2023-01-09T13:55:16.948Z,99615.75
2023-01-09T13:58:03.055Z,99625.03
2023-01-09T14:00:36.090Z,99618.56
2023-01-09T14:03:19.033Z,99617.47
2023-01-09T14:05:46.283Z,99617.63
2023-01-09T14:08:17.999Z,99627.28
2023-01-09T14:10:45.751Z,99632.00
2023-01-09T14:13:22.552Z,99630.41
2023-01-09T14:15:51.618Z,99631.69
2023-01-09T14:18:22.601Z,99625.81
2023-01-09T14:21:00.986Z,99626.31
2023-01-09T14:23:50.269Z,99635.16
2023-01-09T14:26:22.692Z,99632.63
2023-01-09T14:28:49.741Z,99641.03
2023-01-09T14:31:30.463Z,99639.75
2023-01-09T14:34:23.826Z,99639.91
2023-01-09T14:36:59.251Z,99634.34
2023-01-09T14:39:27.185Z,99638.31
2023-01-09T14:42:17.756Z,99643.34
2023-01-09T14:44:47.781Z,99639.06
2023-01-09T14:47:15.712Z,99648.91
2023-01-09T14:49:48.927Z,99646.78
2023-01-09T14:52:21.498Z,99651.53
2023-01-09T14:54:49.180Z,99650.84
2023-01-09T14:57:29.650Z,99640.41
2023-01-09T15:00:01.732Z,99632.63
2023-01-09T15:02:30.936Z,99630.09
2023-01-09T15:05:00.560Z,99620.28
2023-01-09T15:07:34.521Z,99620.88
2023-01-09T15:10:02.654Z,99612.97
2023-01-09T15:12:31.120Z,99601.13
2023-01-09T15:15:01.110Z,99595.25
2023-01-09T15:17:32.683Z,99598.25
2023-01-09T15:20:01.484Z,99585.13
2023-01-09T15:22:30.763Z,99578.66
2023-01-09T15:24:59.158Z,99568.84
2023-01-09T15:27:26.113Z,99573.28
2023-01-09T15:29:53.131Z,99566.94
2023-01-09T15:32:29.940Z,99571.22
2023-01-09T15:34:57.294Z,99565.84
2023-01-09T15:37:29.721Z,99564.75
2023-01-09T15:39:57.960Z,99568.41
2023-01-09T15:42:45.787Z,99558.28
2023-01-09T15:45:28.189Z,99549.00
2023-01-09T15:48:13.954Z,99549.50
2023-01-09T15:50:41.919Z,99552.19
2023-01-09T15:53:17.825Z,99545.38
2023-01-09T15:55:46.738Z,99554.81
2023-01-09T15:58:33.275Z,99563.06
2023-01-09T16:01:02.417Z,99541.91
2023-01-09T16:03:30.515Z,99551.69
2023-01-09T16:06:07.132Z,99545.22
2023-01-09T16:08:39.851Z,99552.19
2023-01-09T16:11:10.582Z,99552.19
2023-01-09T16:13:39.760Z,99562.25
2023-01-09T16:16:07.522Z,99555.00
2023-01-09T16:18:37.734Z,99558.94
2023-01-09T16:21:06.293Z,99558.00
2023-01-09T16:23:34.780Z,99565.84
2023-01-09T16:26:03.374Z,99560.00
2023-01-09T16:28:33.426Z,99556.97
2023-01-09T16:31:08.560Z,99553.19
2023-01-09T16:33:36.421Z,99551.13
2023-01-09T16:36:05.908Z,99556.50
2023-01-09T16:38:33.715Z,99553.47
2023-01-09T16:41:19.513Z,99551.66
2023-01-09T16:43:46.356Z,99552.41
2023-01-09T16:46:17.268Z,99548.63
2023-01-09T16:48:44.810Z,99549.31
2023-01-09T16:51:21.304Z,99550.63
2023-01-09T16:53:48.786Z,99554.41
2023-01-09T16:56:25.380Z,99551.91
2023-01-09T16:58:55.562Z,99557.38
2023-01-09T17:01:24.194Z,99554.94
2023-01-09T17:03:52.550Z,99556.69
2023-01-09T17:06:28.385Z,99556.34
2023-01-09T17:08:55.717Z,99547.22
2023-01-09T17:11:32.019Z,99553.50
2023-01-09T17:13:59.911Z,99561.53
2023-01-09T17:16:26.974Z,99550.94
2023-01-09T17:18:57.381Z,99550.94
2023-01-09T17:21:25.764Z,99543.50
2023-01-09T17:24:12.943Z,99555.94
2023-01-09T17:26:59.881Z,99552.91
2023-01-09T17:29:28.349Z,99569.59
2023-01-09T17:31:55.743Z,99563.16
2023-01-09T17:34:22.692Z,99574.47
2023-01-09T17:36:49.882Z,99571.63
2023-01-09T17:39:17.355Z,99581.34
2023-01-09T17:41:44.455Z,99582.63
2023-01-09T17:44:12.023Z,99593.06
2023-01-09T17:46:40.760Z,99593.06
2023-01-09T17:49:09.838Z,99584.09
2023-01-09T17:51:37.005Z,99578.63
2023-01-09T17:54:04.289Z,99581.00
2023-01-09T17:56:33.357Z,99577.38
2023-01-09T17:59:00.558Z,99590.81
2023-01-09T18:01:27.422Z,99588.84
2023-01-09T18:04:07.435Z,99589.03
2023-01-09T18:06:36.648Z,99590.19
2023-01-09T18:09:04.366Z,99596.03
2023-01-09T18:11:31.296Z,99594.44
2023-01-09T18:13:58.597Z,99602.38
2023-01-09T18:16:26.843Z,99616.09
2023-01-09T18:19:14.439Z,99620.00
2023-01-09T18:21:41.285Z,99618.56
2023-01-09T18:24:08.865Z,99621.75
2023-01-09T18:26:35.806Z,99616.59
2023-01-09T18:29:03.930Z,99620.53
2023-01-09T18:31:30.892Z,99624.00
2023-01-09T18:33:58.697Z,99627.50
2023-01-09T18:36:32.117Z,99630.16
2023-01-09T18:39:00.768Z,99638.84
2023-01-09T18:41:28.084Z,99637.66
2023-01-09T18:43:56.703Z,99643.44
2023-01-09T18:46:30.600Z,99652.97
2023-01-09T18:48:58.861Z,99651.19
2023-01-09T18:51:27.723Z,99660.34
2023-01-09T18:53:55.440Z,99665.69
2023-01-09T18:56:22.712Z,99669.75
2023-01-09T18:58:49.673Z,99671.34
2023-01-09T19:01:16.702Z,99677.81
2023-01-09T19:03:43.835Z,99679.50
2023-01-09T19:06:10.843Z,99683.28
2023-01-09T19:08:37.810Z,99675.06
2023-01-09T19:11:05.595Z,99688.25
2023-01-09T19:13:33.677Z,99689.16
2023-01-09T19:16:02.147Z,99694.25
2023-01-09T19:18:30.896Z,99700.69
2023-01-09T19:20:58.155Z,99696.91
2023-01-09T19:23:25.331Z,99705.56
2023-01-09T19:25:53.174Z,99707.53
2023-01-09T19:28:20.756Z,99694.16
2023-01-09T19:30:48.055Z,99705.47
2023-01-09T19:33:15.349Z,99708.44
2023-01-09T19:35:42.250Z,99699.31
2023-01-09T19:38:09.376Z,99707.66
2023-01-09T19:40:38.320Z,99710.34
2023-01-09T19:43:05.200Z,99711.31
2023-01-09T19:45:32.035Z,99714.09
2023-01-09T19:48:00.040Z,99720.16
2023-01-09T19:50:26.966Z,99724.53
2023-01-09T19:52:53.837Z,99737.94
2023-01-09T19:55:21.220Z,99730.47
2023-01-09T19:57:48.041Z,99733.03
2023-01-09T20:00:15.051Z,99736.03
2023-01-09T20:02:42.089Z,99736.84
2023-01-09T20:05:09.467Z,99737.63
2023-01-09T20:07:36.393Z,99742.88
2023-01-09T20:10:04.571Z,99752.53
2023-01-09T20:12:31.866Z,99754.28
2023-01-09T20:14:58.693Z,99756.19
2023-01-09T20:17:25.630Z,99761.03
2023-01-09T20:19:52.439Z,99766.41
2023-01-09T20:22:19.443Z,99766.50
2023-01-09T20:24:46.739Z,99776.13
2023-01-09T20:27:13.636Z,99790.72
2023-01-09T20:29:40.466Z,99792.59
2023-01-09T20:32:08.852Z,99792.81
2023-01-09T20:34:35.811Z,99799.53
2023-01-09T20:37:02.712Z,99803.53
2023-01-09T20:39:29.511Z,99807.78
2023-01-09T20:41:56.785Z,99805.91
2023-01-09T20:44:23.713Z,99813.13
2023-01-09T20:46:53.541Z,99816.63
2023-01-09T20:49:20.504Z,99825.16
2023-01-09T20:51:52.099Z,99830.31
2023-01-09T20:54:21.208Z,99841.22
2023-01-09T20:56:48.376Z,99847.97
2023-01-09T20:59:20.692Z,99851.66
2023-01-09T21:01:47.682Z,99855.63
2023-01-09T21:04:15.048Z,99863.88
2023-01-09T21:06:42.738Z,99871.91
2023-01-09T21:09:09.796Z,99880.03
2023-01-09T21:11:39.113Z,99873.81
2023-01-09T21:14:06.015Z,99883.13
2023-01-09T21:16:33.037Z,99887.41
2023-01-09T21:19:00.103Z,99885.50
2023-01-09T21:21:30.946Z,99880.94
2023-01-09T21:23:59.097Z,99890.69
2023-01-09T21:26:30.126Z,99892.06
2023-01-09T21:28:58.217Z,99893.66
2023-01-09T21:31:29.828Z,99902.47
2023-01-09T21:33:56.895Z,99905.44
2023-01-09T21:36:23.944Z,99909.72
2023-01-09T21:38:54.321Z,99925.81
2023-01-09T21:41:40.468Z,99925.53
2023-01-09T21:44:29.708Z,99930.16
2023-01-09T21:46:57.675Z,99937.09
2023-01-09T21:49:26.091Z,99947.44
2023-01-09T21:51:55.950Z,99945.13
2023-01-09T21:54:23.811Z,99949.13
2023-01-09T21:56:54.656Z,99960.34
2023-01-09T21:59:21.805Z,99963.41
2023-01-09T22:01:49.488Z,99972.34
2023-01-09T22:04:17.972Z,99969.53
2023-01-09T22:06:45.044Z,99972.38
2023-01-09T22:09:11.907Z,99980.56
2023-01-09T22:11:38.963Z,99980.06
2023-01-09T22:14:05.990Z,99995.66
2023-01-09T22:16:33.444Z,99989.06
2023-01-09T22:19:00.638Z,99998.38
2023-01-09T22:21:27.590Z,99995.50
2023-01-09T22:23:54.502Z,99993.31
2023-01-09T22:26:22.130Z,100001.66
2023-01-09T22:28:49.604Z,100001.59
2023-01-09T22:31:20.979Z,100005.63
2023-01-09T22:33:52.248Z,100006.94
2023-01-09T22:36:21.322Z,100003.75
2023-01-09T22:38:48.247Z,100008.53
2023-01-09T22:41:15.310Z,100017.16
2023-01-09T22:43:43.877Z,100018.16
2023-01-09T22:46:11.853Z,100022.22
2023-01-09T22:48:39.656Z,100030.53
2023-01-09T22:51:07.625Z,100035.19
2023-01-09T22:53:34.697Z,100044.22
2023-01-09T22:56:04.020Z,100046.56
2023-01-09T22:58:31.256Z,100057.78
2023-01-09T23:00:58.373Z,100055.59
2023-01-09T23:03:25.457Z,100061.16
2023-01-09T23:06:12.126Z,100059.81
2023-01-09T23:08:39.419Z,100066.53
2023-01-09T23:11:07.686Z,100082.84
2023-01-09T23:13:34.880Z,100075.09
2023-01-09T23:16:01.870Z,100069.97
2023-01-09T23:18:29.024Z,100076.09
2023-01-09T23:21:02.039Z,100080.09
2023-01-09T23:23:29.707Z,100084.06
2023-01-09T23:25:57.880Z,100089.91
2023-01-09T23:28:26.167Z,100095.09
2023-01-09T23:30:53.312Z,100088.03
2023-01-09T23:33:21.396Z,100092.88
2023-01-09T23:35:49.044Z,100095.28
2023-01-09T23:38:16.146Z,100097.97
2023-01-09T23:40:43.067Z,100104.91
2023-01-09T23:43:13.684Z,100093.63
2023-01-09T23:45:40.539Z,100112.16
2023-01-09T23:48:08.671Z,100124.41
2023-01-09T23:50:35.713Z,100129.19
2023-01-09T23:53:02.795Z,100127.81
2023-01-09T23:55:29.753Z,100127.72
2023-01-09T23:57:56.554Z,100138.31
